sensor_id;sensor_type;location;lat;lon;timestamp;P1;durP1;ratioP1;P2;durP2;ratioP2
68866;SDS011;56451;44.804;20.476;2023-02-13T00:00:42;51.13;;;24.73;;
68866;SDS011;56451;44.804;20.476;2023-02-13T00:03:08;43.78;;;22.42;;
68866;SDS011;56451;44.804;20.476;2023-02-13T00:05:34;43.03;;;22.98;;
68866;SDS011;56451;44.804;20.476;2023-02-13T00:08:00;47.37;;;21.87;;
68866;SDS011;56451;44.804;20.476;2023-02-13T00:10:26;42.42;;;22.73;;
68866;SDS011;56451;44.804;20.476;2023-02-13T00:12:52;44.70;;;22.50;;
68866;SDS011;56451;44.804;20.476;2023-02-13T00:15:18;45.50;;;24.23;;
68866;SDS011;56451;44.804;20.476;2023-02-13T00:17:44;48.67;;;24.50;;
68866;SDS011;56451;44.804;20.476;2023-02-13T00:20:10;47.35;;;23.85;;
68866;SDS011;56451;44.804;20.476;2023-02-13T00:22:37;54.38;;;27.52;;
68866;SDS011;56451;44.804;20.476;2023-02-13T00:25:04;46.72;;;23.67;;
68866;SDS011;56451;44.804;20.476;2023-02-13T00:27:31;40.10;;;22.13;;
68866;SDS011;56451;44.804;20.476;2023-02-13T00:29:58;40.60;;;21.10;;
68866;SDS011;56451;44.804;20.476;2023-02-13T00:32:24;39.97;;;21.05;;
68866;SDS011;56451;44.804;20.476;2023-02-13T00:34:50;46.40;;;22.33;;
68866;SDS011;56451;44.804;20.476;2023-02-13T00:37:16;48.07;;;21.67;;
68866;SDS011;56451;44.804;20.476;2023-02-13T00:39:42;41.58;;;22.25;;
68866;SDS011;56451;44.804;20.476;2023-02-13T00:42:08;42.92;;;22.02;;
68866;SDS011;56451;44.804;20.476;2023-02-13T00:44:34;44.00;;;24.10;;
68866;SDS011;56451;44.804;20.476;2023-02-13T00:47:01;51.67;;;26.75;;
68866;SDS011;56451;44.804;20.476;2023-02-13T00:49:27;63.33;;;28.03;;
68866;SDS011;56451;44.804;20.476;2023-02-13T00:51:53;64.65;;;28.52;;
68866;SDS011;56451;44.804;20.476;2023-02-13T00:54:20;62.67;;;29.77;;
68866;SDS011;56451;44.804;20.476;2023-02-13T00:56:46;54.55;;;27.70;;
68866;SDS011;56451;44.804;20.476;2023-02-13T00:59:13;63.13;;;28.98;;
68866;SDS011;56451;44.804;20.476;2023-02-13T01:01:39;56.25;;;28.10;;
68866;SDS011;56451;44.804;20.476;2023-02-13T01:04:05;62.10;;;28.63;;
68866;SDS011;56451;44.804;20.476;2023-02-13T01:06:31;61.50;;;27.53;;
68866;SDS011;56451;44.804;20.476;2023-02-13T01:08:58;60.72;;;29.02;;
68866;SDS011;56451;44.804;20.476;2023-02-13T01:11:24;51.88;;;26.98;;
68866;SDS011;56451;44.804;20.476;2023-02-13T01:13:51;52.20;;;27.25;;
68866;SDS011;56451;44.804;20.476;2023-02-13T01:16:19;60.55;;;29.48;;
68866;SDS011;56451;44.804;20.476;2023-02-13T01:18:46;63.95;;;31.17;;
68866;SDS011;56451;44.804;20.476;2023-02-13T01:21:16;55.95;;;28.17;;
68866;SDS011;56451;44.804;20.476;2023-02-13T01:23:44;62.28;;;30.30;;
68866;SDS011;56451;44.804;20.476;2023-02-13T01:26:12;58.78;;;29.98;;
68866;SDS011;56451;44.804;20.476;2023-02-13T01:28:44;58.70;;;27.70;;
68866;SDS011;56451;44.804;20.476;2023-02-13T01:31:11;57.20;;;27.88;;
68866;SDS011;56451;44.804;20.476;2023-02-13T01:33:37;56.20;;;26.63;;
68866;SDS011;56451;44.804;20.476;2023-02-13T01:36:07;53.33;;;25.98;;
68866;SDS011;56451;44.804;20.476;2023-02-13T01:38:36;51.13;;;24.17;;
68866;SDS011;56451;44.804;20.476;2023-02-13T01:41:02;47.42;;;24.42;;
68866;SDS011;56451;44.804;20.476;2023-02-13T01:46:21;51.35;;;23.85;;
68866;SDS011;56451;44.804;20.476;2023-02-13T01:48:51;54.97;;;26.05;;
68866;SDS011;56451;44.804;20.476;2023-02-13T01:51:22;51.50;;;25.20;;
68866;SDS011;56451;44.804;20.476;2023-02-13T01:56:48;51.78;;;25.30;;
68866;SDS011;56451;44.804;20.476;2023-02-13T01:59:19;47.00;;;24.50;;
68866;SDS011;56451;44.804;20.476;2023-02-13T02:01:49;52.67;;;26.85;;
68866;SDS011;56451;44.804;20.476;2023-02-13T02:04:19;50.95;;;26.48;;
68866;SDS011;56451;44.804;20.476;2023-02-13T02:06:57;48.17;;;24.80;;
68866;SDS011;56451;44.804;20.476;2023-02-13T02:09:36;54.35;;;26.40;;
68866;SDS011;56451;44.804;20.476;2023-02-13T02:15:08;54.88;;;27.65;;
68866;SDS011;56451;44.804;20.476;2023-02-13T02:17:36;54.60;;;28.05;;
68866;SDS011;56451;44.804;20.476;2023-02-13T02:23:12;60.65;;;30.60;;
68866;SDS011;56451;44.804;20.476;2023-02-13T02:29:10;77.55;;;36.97;;
68866;SDS011;56451;44.804;20.476;2023-02-13T02:35:16;78.57;;;36.95;;
68866;SDS011;56451;44.804;20.476;2023-02-13T02:40:45;80.30;;;38.47;;
68866;SDS011;56451;44.804;20.476;2023-02-13T02:43:39;76.22;;;37.50;;
68866;SDS011;56451;44.804;20.476;2023-02-13T02:46:11;81.57;;;38.42;;
68866;SDS011;56451;44.804;20.476;2023-02-13T02:48:57;82.38;;;38.22;;
68866;SDS011;56451;44.804;20.476;2023-02-13T02:52:15;78.82;;;38.22;;
68866;SDS011;56451;44.804;20.476;2023-02-13T02:55:28;75.43;;;35.72;;
68866;SDS011;56451;44.804;20.476;2023-02-13T03:01:17;69.63;;;34.25;;
68866;SDS011;56451;44.804;20.476;2023-02-13T03:04:08;70.85;;;32.65;;
68866;SDS011;56451;44.804;20.476;2023-02-13T03:07:04;59.65;;;33.15;;
68866;SDS011;56451;44.804;20.476;2023-02-13T03:09:40;70.47;;;33.85;;
68866;SDS011;56451;44.804;20.476;2023-02-13T03:12:30;68.50;;;33.38;;
68866;SDS011;56451;44.804;20.476;2023-02-13T03:15:21;67.97;;;31.30;;
68866;SDS011;56451;44.804;20.476;2023-02-13T03:17:49;67.68;;;34.03;;
68866;SDS011;56451;44.804;20.476;2023-02-13T03:26:31;66.45;;;33.15;;
68866;SDS011;56451;44.804;20.476;2023-02-13T03:32:47;70.50;;;34.60;;
68866;SDS011;56451;44.804;20.476;2023-02-13T03:38:15;70.10;;;35.08;;
68866;SDS011;56451;44.804;20.476;2023-02-13T03:40:56;74.13;;;35.75;;
68866;SDS011;56451;44.804;20.476;2023-02-13T03:46:18;67.63;;;34.47;;
68866;SDS011;56451;44.804;20.476;2023-02-13T03:48:48;67.00;;;34.27;;
68866;SDS011;56451;44.804;20.476;2023-02-13T03:54:11;74.50;;;34.72;;
68866;SDS011;56451;44.804;20.476;2023-02-13T03:56:45;74.93;;;36.67;;
68866;SDS011;56451;44.804;20.476;2023-02-13T03:59:34;77.95;;;38.42;;
68866;SDS011;56451;44.804;20.476;2023-02-13T04:04:42;85.30;;;39.67;;
68866;SDS011;56451;44.804;20.476;2023-02-13T04:07:17;76.32;;;38.22;;
68866;SDS011;56451;44.804;20.476;2023-02-13T04:09:59;84.00;;;38.33;;
68866;SDS011;56451;44.804;20.476;2023-02-13T04:12:49;76.65;;;38.22;;
68866;SDS011;56451;44.804;20.476;2023-02-13T04:15:40;80.63;;;37.60;;
68866;SDS011;56451;44.804;20.476;2023-02-13T04:18:12;79.43;;;37.60;;
68866;SDS011;56451;44.804;20.476;2023-02-13T04:20:42;81.47;;;37.72;;
68866;SDS011;56451;44.804;20.476;2023-02-13T04:23:09;76.43;;;36.45;;
68866;SDS011;56451;44.804;20.476;2023-02-13T04:25:36;82.55;;;41.28;;
68866;SDS011;56451;44.804;20.476;2023-02-13T04:28:03;85.45;;;40.03;;
68866;SDS011;56451;44.804;20.476;2023-02-13T04:30:29;83.53;;;39.33;;
68866;SDS011;56451;44.804;20.476;2023-02-13T04:32:57;78.13;;;38.67;;
68866;SDS011;56451;44.804;20.476;2023-02-13T04:35:23;77.93;;;38.55;;
68866;SDS011;56451;44.804;20.476;2023-02-13T04:37:49;78.47;;;40.83;;
68866;SDS011;56451;44.804;20.476;2023-02-13T04:40:15;82.80;;;39.83;;
68866;SDS011;56451;44.804;20.476;2023-02-13T04:42:41;82.88;;;39.53;;
68866;SDS011;56451;44.804;20.476;2023-02-13T04:45:06;77.72;;;37.88;;
68866;SDS011;56451;44.804;20.476;2023-02-13T04:47:33;84.47;;;37.40;;
68866;SDS011;56451;44.804;20.476;2023-02-13T04:49:59;74.65;;;39.22;;
68866;SDS011;56451;44.804;20.476;2023-02-13T04:52:25;78.10;;;38.95;;
68866;SDS011;56451;44.804;20.476;2023-02-13T04:54:51;81.57;;;39.13;;
68866;SDS011;56451;44.804;20.476;2023-02-13T04:57:18;77.00;;;39.20;;
68866;SDS011;56451;44.804;20.476;2023-02-13T04:59:44;79.80;;;39.13;;
68866;SDS011;56451;44.804;20.476;2023-02-13T05:02:10;72.15;;;37.83;;
68866;SDS011;56451;44.804;20.476;2023-02-13T05:04:36;79.00;;;38.70;;
68866;SDS011;56451;44.804;20.476;2023-02-13T05:07:02;78.85;;;39.75;;
68866;SDS011;56451;44.804;20.476;2023-02-13T05:09:28;78.93;;;40.10;;
68866;SDS011;56451;44.804;20.476;2023-02-13T05:11:54;78.83;;;39.43;;
68866;SDS011;56451;44.804;20.476;2023-02-13T05:14:20;78.25;;;38.83;;
68866;SDS011;56451;44.804;20.476;2023-02-13T05:16:46;81.47;;;40.33;;
68866;SDS011;56451;44.804;20.476;2023-02-13T05:19:14;82.22;;;39.05;;
68866;SDS011;56451;44.804;20.476;2023-02-13T05:21:41;79.45;;;37.35;;
68866;SDS011;56451;44.804;20.476;2023-02-13T05:24:26;75.47;;;37.47;;
68866;SDS011;56451;44.804;20.476;2023-02-13T05:26:52;78.78;;;38.10;;
68866;SDS011;56451;44.804;20.476;2023-02-13T05:29:17;70.68;;;36.20;;
68866;SDS011;56451;44.804;20.476;2023-02-13T05:31:47;73.80;;;36.40;;
68866;SDS011;56451;44.804;20.476;2023-02-13T05:34:21;72.93;;;35.83;;
68866;SDS011;56451;44.804;20.476;2023-02-13T05:36:48;74.57;;;38.17;;
68866;SDS011;56451;44.804;20.476;2023-02-13T05:39:14;71.90;;;35.80;;
68866;SDS011;56451;44.804;20.476;2023-02-13T05:41:41;72.67;;;34.77;;
68866;SDS011;56451;44.804;20.476;2023-02-13T05:44:08;66.28;;;34.38;;
68866;SDS011;56451;44.804;20.476;2023-02-13T05:46:38;71.72;;;35.20;;
68866;SDS011;56451;44.804;20.476;2023-02-13T05:49:05;70.10;;;34.10;;
68866;SDS011;56451;44.804;20.476;2023-02-13T05:51:32;63.03;;;34.23;;
68866;SDS011;56451;44.804;20.476;2023-02-13T05:53:58;67.32;;;33.30;;
68866;SDS011;56451;44.804;20.476;2023-02-13T05:56:24;66.30;;;33.63;;
68866;SDS011;56451;44.804;20.476;2023-02-13T05:58:51;69.28;;;34.58;;
68866;SDS011;56451;44.804;20.476;2023-02-13T06:01:18;70.60;;;35.00;;
68866;SDS011;56451;44.804;20.476;2023-02-13T06:03:44;68.23;;;34.47;;
68866;SDS011;56451;44.804;20.476;2023-02-13T06:06:10;68.60;;;35.17;;
68866;SDS011;56451;44.804;20.476;2023-02-13T06:08:36;70.03;;;35.28;;
68866;SDS011;56451;44.804;20.476;2023-02-13T06:11:02;72.32;;;35.15;;
68866;SDS011;56451;44.804;20.476;2023-02-13T06:13:28;70.03;;;35.17;;
68866;SDS011;56451;44.804;20.476;2023-02-13T06:15:55;69.95;;;34.70;;
68866;SDS011;56451;44.804;20.476;2023-02-13T06:18:21;69.70;;;34.70;;
68866;SDS011;56451;44.804;20.476;2023-02-13T06:20:47;68.57;;;35.40;;
68866;SDS011;56451;44.804;20.476;2023-02-13T06:23:13;75.53;;;36.33;;
68866;SDS011;56451;44.804;20.476;2023-02-13T06:25:40;68.70;;;34.95;;
68866;SDS011;56451;44.804;20.476;2023-02-13T06:28:06;77.20;;;36.75;;
68866;SDS011;56451;44.804;20.476;2023-02-13T06:30:32;74.50;;;35.97;;
68866;SDS011;56451;44.804;20.476;2023-02-13T06:32:58;73.50;;;36.40;;
68866;SDS011;56451;44.804;20.476;2023-02-13T06:35:24;75.63;;;37.67;;
68866;SDS011;56451;44.804;20.476;2023-02-13T06:37:51;67.80;;;35.72;;
68866;SDS011;56451;44.804;20.476;2023-02-13T06:40:17;74.28;;;34.97;;
68866;SDS011;56451;44.804;20.476;2023-02-13T06:42:43;71.45;;;36.63;;
68866;SDS011;56451;44.804;20.476;2023-02-13T06:45:10;71.28;;;35.70;;
68866;SDS011;56451;44.804;20.476;2023-02-13T06:47:40;72.72;;;35.75;;
68866;SDS011;56451;44.804;20.476;2023-02-13T06:50:08;66.65;;;35.30;;
68866;SDS011;56451;44.804;20.476;2023-02-13T06:52:34;75.80;;;35.92;;
68866;SDS011;56451;44.804;20.476;2023-02-13T06:55:00;69.28;;;34.50;;
68866;SDS011;56451;44.804;20.476;2023-02-13T06:57:26;69.32;;;34.75;;
68866;SDS011;56451;44.804;20.476;2023-02-13T06:59:57;71.90;;;35.30;;
68866;SDS011;56451;44.804;20.476;2023-02-13T07:02:24;70.57;;;34.53;;
68866;SDS011;56451;44.804;20.476;2023-02-13T07:04:50;72.53;;;34.83;;
68866;SDS011;56451;44.804;20.476;2023-02-13T07:07:16;65.88;;;34.97;;
68866;SDS011;56451;44.804;20.476;2023-02-13T07:09:42;67.47;;;34.20;;
68866;SDS011;56451;44.804;20.476;2023-02-13T07:12:08;74.95;;;36.05;;
68866;SDS011;56451;44.804;20.476;2023-02-13T07:14:34;66.30;;;33.50;;
68866;SDS011;56451;44.804;20.476;2023-02-13T07:17:00;74.77;;;35.80;;
68866;SDS011;56451;44.804;20.476;2023-02-13T07:19:25;63.55;;;33.60;;
68866;SDS011;56451;44.804;20.476;2023-02-13T07:21:51;68.57;;;35.85;;
68866;SDS011;56451;44.804;20.476;2023-02-13T07:24:17;72.57;;;36.47;;
68866;SDS011;56451;44.804;20.476;2023-02-13T07:26:43;77.15;;;38.50;;
68866;SDS011;56451;44.804;20.476;2023-02-13T07:29:09;71.57;;;35.57;;
68866;SDS011;56451;44.804;20.476;2023-02-13T07:31:35;68.43;;;34.60;;
68866;SDS011;56451;44.804;20.476;2023-02-13T07:34:01;68.43;;;35.92;;
68866;SDS011;56451;44.804;20.476;2023-02-13T07:36:27;81.97;;;39.78;;
68866;SDS011;56451;44.804;20.476;2023-02-13T07:38:53;79.15;;;40.15;;
68866;SDS011;56451;44.804;20.476;2023-02-13T07:41:19;84.20;;;39.78;;
68866;SDS011;56451;44.804;20.476;2023-02-13T07:43:45;76.93;;;39.40;;
68866;SDS011;56451;44.804;20.476;2023-02-13T07:46:12;82.13;;;40.20;;
68866;SDS011;56451;44.804;20.476;2023-02-13T07:48:38;77.07;;;37.53;;
68866;SDS011;56451;44.804;20.476;2023-02-13T07:51:04;78.45;;;38.92;;
68866;SDS011;56451;44.804;20.476;2023-02-13T07:53:30;74.90;;;38.15;;
68866;SDS011;56451;44.804;20.476;2023-02-13T07:55:56;74.63;;;38.38;;
68866;SDS011;56451;44.804;20.476;2023-02-13T07:58:22;77.00;;;37.43;;
68866;SDS011;56451;44.804;20.476;2023-02-13T08:00:48;81.15;;;37.45;;
68866;SDS011;56451;44.804;20.476;2023-02-13T08:03:14;73.55;;;38.63;;
68866;SDS011;56451;44.804;20.476;2023-02-13T08:05:40;83.03;;;40.40;;
68866;SDS011;56451;44.804;20.476;2023-02-13T08:08:06;79.25;;;38.67;;
68866;SDS011;56451;44.804;20.476;2023-02-13T08:10:32;79.78;;;40.53;;
68866;SDS011;56451;44.804;20.476;2023-02-13T08:13:17;81.85;;;43.42;;
68866;SDS011;56451;44.804;20.476;2023-02-13T08:15:43;88.10;;;44.17;;
68866;SDS011;56451;44.804;20.476;2023-02-13T08:18:09;94.10;;;46.13;;
68866;SDS011;56451;44.804;20.476;2023-02-13T08:20:35;98.45;;;46.90;;
68866;SDS011;56451;44.804;20.476;2023-02-13T08:23:04;91.10;;;46.53;;
68866;SDS011;56451;44.804;20.476;2023-02-13T08:25:32;94.45;;;46.28;;
68866;SDS011;56451;44.804;20.476;2023-02-13T08:27:58;101.88;;;48.60;;
68866;SDS011;56451;44.804;20.476;2023-02-13T08:30:26;103.88;;;49.38;;
68866;SDS011;56451;44.804;20.476;2023-02-13T08:32:53;93.20;;;48.88;;
68866;SDS011;56451;44.804;20.476;2023-02-13T08:35:19;102.43;;;52.90;;
68866;SDS011;56451;44.804;20.476;2023-02-13T08:37:47;99.45;;;50.03;;
68866;SDS011;56451;44.804;20.476;2023-02-13T08:40:13;97.22;;;49.88;;
68866;SDS011;56451;44.804;20.476;2023-02-13T08:42:39;106.45;;;50.63;;
68866;SDS011;56451;44.804;20.476;2023-02-13T08:45:04;94.93;;;49.30;;
68866;SDS011;56451;44.804;20.476;2023-02-13T08:47:31;90.20;;;46.90;;
68866;SDS011;56451;44.804;20.476;2023-02-13T08:49:56;98.55;;;49.67;;
68866;SDS011;56451;44.804;20.476;2023-02-13T08:52:22;90.57;;;47.65;;
68866;SDS011;56451;44.804;20.476;2023-02-13T08:54:49;85.80;;;46.00;;
68866;SDS011;56451;44.804;20.476;2023-02-13T08:57:15;91.53;;;44.15;;
68866;SDS011;56451;44.804;20.476;2023-02-13T08:59:40;84.80;;;42.25;;
68866;SDS011;56451;44.804;20.476;2023-02-13T09:02:08;86.00;;;42.45;;
68866;SDS011;56451;44.804;20.476;2023-02-13T09:04:36;86.87;;;43.47;;
68866;SDS011;56451;44.804;20.476;2023-02-13T09:07:02;85.93;;;43.78;;
68866;SDS011;56451;44.804;20.476;2023-02-13T09:09:28;73.53;;;38.88;;
68866;SDS011;56451;44.804;20.476;2023-02-13T09:11:54;75.45;;;39.25;;
68866;SDS011;56451;44.804;20.476;2023-02-13T09:14:23;69.00;;;36.83;;
68866;SDS011;56451;44.804;20.476;2023-02-13T09:16:49;73.40;;;38.95;;
68866;SDS011;56451;44.804;20.476;2023-02-13T09:19:15;66.65;;;35.20;;
68866;SDS011;56451;44.804;20.476;2023-02-13T09:21:40;46.23;;;24.60;;
68866;SDS011;56451;44.804;20.476;2023-02-13T09:24:07;32.50;;;17.02;;
68866;SDS011;56451;44.804;20.476;2023-02-13T09:26:34;27.75;;;14.57;;
68866;SDS011;56451;44.804;20.476;2023-02-13T09:28:59;29.87;;;15.43;;
68866;SDS011;56451;44.804;20.476;2023-02-13T09:31:25;33.22;;;16.30;;
68866;SDS011;56451;44.804;20.476;2023-02-13T09:33:53;40.50;;;21.83;;
68866;SDS011;56451;44.804;20.476;2023-02-13T09:36:20;50.40;;;26.58;;
68866;SDS011;56451;44.804;20.476;2023-02-13T09:38:52;56.50;;;30.55;;
68866;SDS011;56451;44.804;20.476;2023-02-13T09:46:33;57.45;;;31.15;;
68866;SDS011;56451;44.804;20.476;2023-02-13T09:49:04;65.10;;;33.85;;
68866;SDS011;56451;44.804;20.476;2023-02-13T09:51:33;52.28;;;28.42;;
68866;SDS011;56451;44.804;20.476;2023-02-13T09:54:06;48.83;;;27.07;;
68866;SDS011;56451;44.804;20.476;2023-02-13T10:05:09;39.95;;;19.85;;
68866;SDS011;56451;44.804;20.476;2023-02-13T10:16:44;29.95;;;16.30;;
68866;SDS011;56451;44.804;20.476;2023-02-13T10:19:23;27.70;;;13.98;;
68866;SDS011;56451;44.804;20.476;2023-02-13T10:21:56;24.87;;;13.33;;
68866;SDS011;56451;44.804;20.476;2023-02-13T10:24:27;27.38;;;13.45;;
68866;SDS011;56451;44.804;20.476;2023-02-13T10:27:31;31.65;;;16.65;;
68866;SDS011;56451;44.804;20.476;2023-02-13T10:30:02;32.83;;;16.92;;
68866;SDS011;56451;44.804;20.476;2023-02-13T10:32:57;35.92;;;20.33;;
68866;SDS011;56451;44.804;20.476;2023-02-13T10:36:05;38.17;;;20.37;;
68866;SDS011;56451;44.804;20.476;2023-02-13T10:39:01;43.90;;;25.05;;
68866;SDS011;56451;44.804;20.476;2023-02-13T10:50:19;61.50;;;33.03;;
68866;SDS011;56451;44.804;20.476;2023-02-13T10:58:42;55.13;;;26.75;;
68866;SDS011;56451;44.804;20.476;2023-02-13T11:01:34;61.10;;;30.83;;
68866;SDS011;56451;44.804;20.476;2023-02-13T11:04:18;54.37;;;28.33;;
68866;SDS011;56451;44.804;20.476;2023-02-13T11:06:53;48.17;;;27.10;;
68866;SDS011;56451;44.804;20.476;2023-02-13T11:09:26;80.38;;;36.30;;
68866;SDS011;56451;44.804;20.476;2023-02-13T11:11:53;55.50;;;28.25;;
68866;SDS011;56451;44.804;20.476;2023-02-13T11:19:35;71.75;;;32.17;;
68866;SDS011;56451;44.804;20.476;2023-02-13T11:22:26;40.28;;;22.20;;
68866;SDS011;56451;44.804;20.476;2023-02-13T11:24:57;39.25;;;22.60;;
68866;SDS011;56451;44.804;20.476;2023-02-13T11:27:32;43.83;;;23.58;;
68866;SDS011;56451;44.804;20.476;2023-02-13T11:30:06;39.53;;;23.47;;
68866;SDS011;56451;44.804;20.476;2023-02-13T11:32:57;41.60;;;22.23;;
68866;SDS011;56451;44.804;20.476;2023-02-13T11:35:26;99.20;;;38.47;;
68866;SDS011;56451;44.804;20.476;2023-02-13T11:40:42;92.40;;;35.47;;
68866;SDS011;56451;44.804;20.476;2023-02-13T11:43:16;112.27;;;41.30;;
68866;SDS011;56451;44.804;20.476;2023-02-13T11:45:58;49.92;;;25.33;;
68866;SDS011;56451;44.804;20.476;2023-02-13T11:48:37;52.97;;;25.73;;
68866;SDS011;56451;44.804;20.476;2023-02-13T11:51:03;57.85;;;27.90;;
68866;SDS011;56451;44.804;20.476;2023-02-13T11:53:30;41.08;;;23.10;;
68866;SDS011;56451;44.804;20.476;2023-02-13T11:58:27;45.95;;;24.33;;
68866;SDS011;56451;44.804;20.476;2023-02-13T12:01:06;43.20;;;23.60;;
68866;SDS011;56451;44.804;20.476;2023-02-13T12:03:33;54.03;;;26.15;;
68866;SDS011;56451;44.804;20.476;2023-02-13T12:08:31;49.53;;;24.70;;
68866;SDS011;56451;44.804;20.476;2023-02-13T12:10:58;45.70;;;24.23;;
68866;SDS011;56451;44.804;20.476;2023-02-13T12:13:32;42.00;;;22.05;;
68866;SDS011;56451;44.804;20.476;2023-02-13T12:16:23;37.30;;;22.10;;
68866;SDS011;56451;44.804;20.476;2023-02-13T12:18:53;36.17;;;21.40;;
68866;SDS011;56451;44.804;20.476;2023-02-13T12:26:43;37.13;;;21.90;;
68866;SDS011;56451;44.804;20.476;2023-02-13T12:40:13;65.25;;;27.73;;
68866;SDS011;56451;44.804;20.476;2023-02-13T12:45:24;46.30;;;20.50;;
68866;SDS011;56451;44.804;20.476;2023-02-13T12:51:34;35.45;;;17.50;;
68866;SDS011;56451;44.804;20.476;2023-02-13T12:54:21;27.52;;;14.35;;
68866;SDS011;56451;44.804;20.476;2023-02-13T13:10:38;27.73;;;14.02;;
68866;SDS011;56451;44.804;20.476;2023-02-13T13:23:49;26.33;;;13.48;;
68866;SDS011;56451;44.804;20.476;2023-02-13T13:28:57;30.67;;;15.27;;
68866;SDS011;56451;44.804;20.476;2023-02-13T13:31:25;89.60;;;34.28;;
68866;SDS011;56451;44.804;20.476;2023-02-13T13:33:52;30.77;;;15.57;;
68866;SDS011;56451;44.804;20.476;2023-02-13T13:50:21;33.67;;;16.60;;
68866;SDS011;56451;44.804;20.476;2023-02-13T13:53:27;25.88;;;13.23;;
68866;SDS011;56451;44.804;20.476;2023-02-13T13:58:34;23.05;;;12.63;;
68866;SDS011;56451;44.804;20.476;2023-02-13T14:11:56;25.85;;;13.63;;
68866;SDS011;56451;44.804;20.476;2023-02-13T14:16:51;30.55;;;15.32;;
68866;SDS011;56451;44.804;20.476;2023-02-13T14:19:25;22.25;;;12.38;;
68866;SDS011;56451;44.804;20.476;2023-02-13T14:21:52;26.55;;;13.32;;
68866;SDS011;56451;44.804;20.476;2023-02-13T14:24:19;20.05;;;11.85;;
68866;SDS011;56451;44.804;20.476;2023-02-13T14:26:49;26.15;;;14.35;;
68866;SDS011;56451;44.804;20.476;2023-02-13T14:34:51;113.00;;;38.58;;
68866;SDS011;56451;44.804;20.476;2023-02-13T14:37:22;92.72;;;33.13;;
68866;SDS011;56451;44.804;20.476;2023-02-13T14:42:35;31.20;;;15.75;;
68866;SDS011;56451;44.804;20.476;2023-02-13T14:45:04;28.27;;;14.65;;
68866;SDS011;56451;44.804;20.476;2023-02-13T14:47:41;25.00;;;14.05;;
68866;SDS011;56451;44.804;20.476;2023-02-13T14:50:28;26.73;;;14.65;;
68866;SDS011;56451;44.804;20.476;2023-02-13T14:53:13;28.70;;;15.30;;
68866;SDS011;56451;44.804;20.476;2023-02-13T14:55:44;24.02;;;14.95;;
68866;SDS011;56451;44.804;20.476;2023-02-13T14:58:14;32.65;;;17.13;;
68866;SDS011;56451;44.804;20.476;2023-02-13T15:06:06;62.25;;;24.98;;
68866;SDS011;56451;44.804;20.476;2023-02-13T15:09:01;33.08;;;16.50;;
68866;SDS011;56451;44.804;20.476;2023-02-13T15:14:14;47.63;;;21.35;;
68866;SDS011;56451;44.804;20.476;2023-02-13T15:16:40;31.80;;;17.05;;
68866;SDS011;56451;44.804;20.476;2023-02-13T15:19:10;31.30;;;16.67;;
68866;SDS011;56451;44.804;20.476;2023-02-13T15:21:45;27.05;;;15.68;;
68866;SDS011;56451;44.804;20.476;2023-02-13T15:24:14;22.02;;;13.23;;
68866;SDS011;56451;44.804;20.476;2023-02-13T15:26:40;24.92;;;13.57;;
68866;SDS011;56451;44.804;20.476;2023-02-13T15:29:17;23.48;;;13.57;;
68866;SDS011;56451;44.804;20.476;2023-02-13T15:31:44;25.20;;;14.70;;
68866;SDS011;56451;44.804;20.476;2023-02-13T15:34:44;26.07;;;14.57;;
68866;SDS011;56451;44.804;20.476;2023-02-13T15:37:02;24.53;;;14.97;;
68866;SDS011;56451;44.804;20.476;2023-02-13T15:39:29;27.98;;;16.50;;
68866;SDS011;56451;44.804;20.476;2023-02-13T15:41:59;26.80;;;16.10;;
68866;SDS011;56451;44.804;20.476;2023-02-13T15:44:31;24.52;;;15.18;;
68866;SDS011;56451;44.804;20.476;2023-02-13T15:49:36;23.42;;;14.15;;
68866;SDS011;56451;44.804;20.476;2023-02-13T15:52:04;27.08;;;14.75;;
68866;SDS011;56451;44.804;20.476;2023-02-13T15:54:33;24.88;;;13.90;;
68866;SDS011;56451;44.804;20.476;2023-02-13T15:57:04;23.30;;;13.43;;
68866;SDS011;56451;44.804;20.476;2023-02-13T15:59:33;28.43;;;13.67;;
68866;SDS011;56451;44.804;20.476;2023-02-13T16:02:03;23.92;;;13.85;;
68866;SDS011;56451;44.804;20.476;2023-02-13T16:04:31;26.80;;;16.40;;
68866;SDS011;56451;44.804;20.476;2023-02-13T16:06:58;28.65;;;14.85;;
68866;SDS011;56451;44.804;20.476;2023-02-13T16:09:26;26.63;;;15.48;;
68866;SDS011;56451;44.804;20.476;2023-02-13T16:11:58;25.63;;;15.30;;
68866;SDS011;56451;44.804;20.476;2023-02-13T16:14:27;24.85;;;15.00;;
68866;SDS011;56451;44.804;20.476;2023-02-13T16:16:59;25.98;;;14.25;;
68866;SDS011;56451;44.804;20.476;2023-02-13T16:22:06;29.35;;;16.65;;
68866;SDS011;56451;44.804;20.476;2023-02-13T16:24:43;25.97;;;15.63;;
68866;SDS011;56451;44.804;20.476;2023-02-13T16:27:13;30.25;;;17.48;;
68866;SDS011;56451;44.804;20.476;2023-02-13T16:29:44;26.00;;;15.80;;
68866;SDS011;56451;44.804;20.476;2023-02-13T16:32:30;28.27;;;16.63;;
68866;SDS011;56451;44.804;20.476;2023-02-13T16:35:23;29.15;;;17.05;;
68866;SDS011;56451;44.804;20.476;2023-02-13T16:37:59;35.83;;;18.60;;
68866;SDS011;56451;44.804;20.476;2023-02-13T16:46:10;35.30;;;19.10;;
68866;SDS011;56451;44.804;20.476;2023-02-13T16:48:40;36.53;;;18.90;;
68866;SDS011;56451;44.804;20.476;2023-02-13T16:53:55;36.45;;;19.38;;
68866;SDS011;56451;44.804;20.476;2023-02-13T16:56:23;34.60;;;18.92;;
68866;SDS011;56451;44.804;20.476;2023-02-13T16:58:49;38.17;;;20.40;;
68866;SDS011;56451;44.804;20.476;2023-02-13T17:01:14;33.87;;;19.20;;
68866;SDS011;56451;44.804;20.476;2023-02-13T17:03:42;32.47;;;19.35;;
68866;SDS011;56451;44.804;20.476;2023-02-13T17:06:08;35.10;;;19.65;;
68866;SDS011;56451;44.804;20.476;2023-02-13T17:08:35;36.25;;;20.13;;
68866;SDS011;56451;44.804;20.476;2023-02-13T17:11:05;38.45;;;19.55;;
68866;SDS011;56451;44.804;20.476;2023-02-13T17:13:33;31.85;;;19.23;;
68866;SDS011;56451;44.804;20.476;2023-02-13T17:15:59;38.22;;;20.33;;
68866;SDS011;56451;44.804;20.476;2023-02-13T17:18:25;40.90;;;21.13;;
68866;SDS011;56451;44.804;20.476;2023-02-13T17:20:51;39.30;;;18.67;;
68866;SDS011;56451;44.804;20.476;2023-02-13T17:23:22;36.40;;;18.40;;
68866;SDS011;56451;44.804;20.476;2023-02-13T17:25:49;30.63;;;17.05;;
68866;SDS011;56451;44.804;20.476;2023-02-13T17:30:47;33.70;;;17.38;;
68866;SDS011;56451;44.804;20.476;2023-02-13T17:33:19;32.40;;;16.65;;
68866;SDS011;56451;44.804;20.476;2023-02-13T17:35:47;32.33;;;17.75;;
68866;SDS011;56451;44.804;20.476;2023-02-13T17:38:13;31.60;;;16.23;;
68866;SDS011;56451;44.804;20.476;2023-02-13T17:40:39;33.13;;;15.90;;
68866;SDS011;56451;44.804;20.476;2023-02-13T17:43:06;28.45;;;15.88;;
68866;SDS011;56451;44.804;20.476;2023-02-13T17:45:37;29.25;;;16.13;;
68866;SDS011;56451;44.804;20.476;2023-02-13T17:48:03;31.63;;;16.52;;
68866;SDS011;56451;44.804;20.476;2023-02-13T17:50:30;32.23;;;15.63;;
68866;SDS011;56451;44.804;20.476;2023-02-13T17:52:59;34.15;;;16.60;;
68866;SDS011;56451;44.804;20.476;2023-02-13T17:55:28;33.97;;;18.20;;